Bhutan

Resources for Bhutan vACC (Inactive)

Active Sector File
VECF-master.zip | Release Date 5/24/2017 | Downloads 33 | File Size 6.87 MB

VATSIM Metar for Bhutan
VQPR 221000Z 12016KT 9999 SKC 13/M07 Q1014